Time;durP1;ratioP1;P1;durP2;ratioP2;P2;SDS_P1;SDS_P2;PMS_P1;PMS_P2;Temp;Humidity;BMP_temperature;BMP_pressure;BME280_temperature;BME280_humidity;BME280_pressure;Samples;Min_cycle;Max_cycle;Signal;HPM_P1;HPM_P2
2022/02/19 00:01:40;;;;;;;2.7;6.5;;;;;;;12.8;51.5;97050;;;;
2022/02/19 00:11:40;;;;;;;2.7;6.5;;;;;;;12.6;51.8;97040;;;;
2022/02/19 00:22:40;;;;;;;2.8;5.9;;;;;;;12.6;52.1;97080;;;;
2022/02/19 00:32:40;;;;;;;2.8;5.9;;;;;;;12.7;52.8;97120;;;;
2022/02/19 00:43:39;;;;;;;2.8;5.9;;;;;;;13.2;54.1;97170;;;;
2022/02/19 00:53:40;;;;;;;3;9.2;;;;;;;12.5;57.4;97250;;;;
2022/02/19 01:04:40;;;;;;;3;9.2;;;;;;;11.9;58;97240;;;;
2022/02/19 01:15:42;;;;;;;2.2;4.7;;;;;;;11.6;60.1;97260;;;;
2022/02/19 01:26:40;;;;;;;2.2;4.7;;;;;;;11.2;60.9;97310;;;;
2022/02/19 01:37:40;;;;;;;2.2;4.7;;;;;;;10.7;61.9;97290;;;;
2022/02/19 01:47:40;;;;;;;2.1;4.2;;;;;;;10.1;62.5;97330;;;;
2022/02/19 01:57:40;;;;;;;2.1;4.2;;;;;;;9.8;63.3;97300;;;;
2022/02/19 02:07:40;;;;;;;2.1;4.2;;;;;;;9.8;59.2;97310;;;;
2022/02/19 02:18:40;;;;;;;1.3;2.7;;;;;;;9.9;53.6;97320;;;;
2022/02/19 02:28:40;;;;;;;1.3;2.7;;;;;;;10;50.9;97330;;;;
2022/02/19 02:38:40;;;;;;;1.3;2.7;;;;;;;10;51.9;97320;;;;
2022/02/19 02:48:40;;;;;;;1.4;3.2;;;;;;;10.1;52.7;97350;;;;
2022/02/19 02:59:40;;;;;;;1.4;3.2;;;;;;;9.9;57.4;97360;;;;
2022/02/19 03:10:40;;;;;;;1.4;3.2;;;;;;;10.2;49;97370;;;;
2022/02/19 03:20:40;;;;;;;1.4;3.5;;;;;;;10.1;45.4;97400;;;;
2022/02/19 03:30:40;;;;;;;1.4;3.5;;;;;;;10.2;43.4;97420;;;;
2022/02/19 03:40:39;;;;;;;1.4;3.5;;;;;;;10;43.3;97450;;;;
2022/02/19 03:50:40;;;;;;;0.9;2.1;;;;;;;9.8;42.8;97460;;;;
2022/02/19 04:01:40;;;;;;;0.9;2.1;;;;;;;9.7;42.3;97490;;;;
2022/02/19 04:12:40;;;;;;;0.9;2.1;;;;;;;9.5;43.2;97470;;;;
2022/02/19 04:22:41;;;;;;;1.2;2.5;;;;;;;9.4;43.9;97480;;;;
2022/02/19 04:33:39;;;;;;;1.2;2.5;;;;;;;9.3;43.3;97490;;;;
2022/02/19 04:43:40;;;;;;;1.2;2.5;;;;;;;9.2;44.1;97500;;;;
2022/02/19 04:53:40;;;;;;;0.9;2.7;;;;;;;9.2;43.1;97500;;;;
2022/02/19 05:04:40;;;;;;;0.9;2.7;;;;;;;9;42.8;97540;;;;
2022/02/19 05:15:40;;;;;;;1;3.2;;;;;;;8.8;42.9;97570;;;;
2022/02/19 05:25:40;;;;;;;1;3.2;;;;;;;8.6;43.6;97580;;;;
2022/02/19 05:36:40;;;;;;;1;3.2;;;;;;;8.4;43.8;97570;;;;
2022/02/19 05:46:40;;;;;;;0.8;2.2;;;;;;;8.2;44.4;97600;;;;
2022/02/19 05:57:40;;;;;;;0.8;2.2;;;;;;;8.1;45;97600;;;;
2022/02/19 06:08:40;;;;;;;0.8;2.2;;;;;;;8.1;45.5;97610;;;;
2022/02/19 06:18:40;;;;;;;1.9;5.7;;;;;;;8.2;45.1;97620;;;;
2022/02/19 06:28:40;;;;;;;1.9;5.7;;;;;;;8.1;45.1;97650;;;;
2022/02/19 06:38:40;;;;;;;1.9;5.7;;;;;;;8.1;44.7;97660;;;;
2022/02/19 06:48:40;;;;;;;1.5;3;;;;;;;8;45.2;97640;;;;
2022/02/19 06:59:40;;;;;;;1.5;3;;;;;;;8;44.6;97680;;;;
2022/02/19 07:10:40;;;;;;;1.5;3;;;;;;;8;45.8;97680;;;;
2022/02/19 07:20:40;;;;;;;1.5;6.3;;;;;;;8;45.4;97720;;;;
2022/02/19 07:31:40;;;;;;;1.5;6.3;;;;;;;8;44.6;97720;;;;
2022/02/19 07:41:40;;;;;;;1.5;6.3;;;;;;;8.2;43.5;97740;;;;
2022/02/19 08:03:40;;;;;;;2;4.4;;;;;;;8.5;41.6;97780;;;;
2022/02/19 08:13:40;;;;;;;2;4.4;;;;;;;8.5;41.8;97800;;;;
2022/02/19 08:24:40;;;;;;;2;5.6;;;;;;;8.6;43.3;97820;;;;
2022/02/19 08:34:40;;;;;;;2;5.6;;;;;;;8.8;42.6;97820;;;;
2022/02/19 08:45:40;;;;;;;2.1;6.9;;;;;;;9.1;41.6;97840;;;;
2022/02/19 08:55:40;;;;;;;2.1;6.9;;;;;;;9.2;39.3;97840;;;;
2022/02/19 09:05:41;;;;;;;2.1;6.9;;;;;;;8.9;38;97860;;;;
2022/02/19 09:16:40;;;;;;;1.7;5.4;;;;;;;8.8;38.2;97900;;;;
2022/02/19 09:26:40;;;;;;;1.7;5.4;;;;;;;8.7;37.8;97910;;;;
2022/02/19 09:37:40;;;;;;;1.7;5.4;;;;;;;8.8;37.9;97950;;;;
2022/02/19 09:48:40;;;;;;;2.1;5.1;;;;;;;9;36.7;98000;;;;
2022/02/19 09:58:43;;;;;;;2.1;5.1;;;;;;;9.3;36.6;97990;;;;
2022/02/19 10:08:40;;;;;;;2.1;5.1;;;;;;;9.5;37.1;98010;;;;
2022/02/19 10:19:40;;;;;;;1.7;4.1;;;;;;;9.2;37.7;98010;;;;
2022/02/19 10:30:40;;;;;;;1.7;4.1;;;;;;;9.8;35.5;98030;;;;
2022/02/19 10:40:42;;;;;;;1.7;4.1;;;;;;;9.7;34.9;98060;;;;
2022/02/19 10:51:40;;;;;;;2;6.6;;;;;;;9.9;34.8;98050;;;;
2022/02/19 11:02:40;;;;;;;2;6.6;;;;;;;9.6;34.2;98060;;;;
2022/02/19 11:13:40;;;;;;;2;6.6;;;;;;;9.8;35.8;98080;;;;
2022/02/19 11:24:40;;;;;;;2.1;7.8;;;;;;;9.9;34.5;98100;;;;
2022/02/19 11:35:40;;;;;;;2.1;7.8;;;;;;;10.3;34.1;98120;;;;
2022/02/19 11:46:40;;;;;;;1.5;4.9;;;;;;;10.2;33.7;98140;;;;
2022/02/19 11:57:40;;;;;;;1.5;4.9;;;;;;;9.8;34.1;98160;;;;
2022/02/19 12:07:40;;;;;;;1.5;4.9;;;;;;;9.8;34.7;98130;;;;
2022/02/19 12:17:40;;;;;;;1.8;4.7;;;;;;;10.2;35.2;98150;;;;
2022/02/19 12:28:42;;;;;;;1.8;4.7;;;;;;;9.9;35.1;98170;;;;
2022/02/19 12:38:40;;;;;;;1.8;4.7;;;;;;;10.2;35.8;98160;;;;
2022/02/19 12:48:40;;;;;;;1.9;4.1;;;;;;;9.9;36.1;98160;;;;
2022/02/19 12:59:40;;;;;;;1.9;4.1;;;;;;;9.9;35.8;98180;;;;
2022/02/19 13:09:40;;;;;;;1.9;4.1;;;;;;;9.5;36.3;98200;;;;
2022/02/19 13:20:40;;;;;;;1.4;4.1;;;;;;;9.3;36.6;98210;;;;
2022/02/19 13:30:40;;;;;;;1.4;4.1;;;;;;;9.2;37.1;98220;;;;
2022/02/19 13:40:40;;;;;;;1.4;4.1;;;;;;;9;38;98250;;;;
2022/02/19 13:51:40;;;;;;;1.8;3.6;;;;;;;8.8;38.5;98270;;;;
2022/02/19 14:01:40;;;;;;;1.8;3.6;;;;;;;8.9;39.7;98290;;;;
2022/02/19 14:11:40;;;;;;;1.8;3.6;;;;;;;8.6;40.4;98310;;;;
2022/02/19 14:21:40;;;;;;;2.4;6.2;;;;;;;8.6;41.2;98320;;;;
2022/02/19 14:32:40;;;;;;;2.4;6.2;;;;;;;8.6;40.9;98320;;;;
2022/02/19 14:42:40;;;;;;;2.4;6.2;;;;;;;8.6;41.6;98340;;;;
2022/02/19 14:52:42;;;;;;;3.4;6.9;;;;;;;8.6;42.4;98340;;;;
2022/02/19 15:03:40;;;;;;;3.4;6.9;;;;;;;8.4;41.9;98340;;;;
2022/02/19 15:13:40;;;;;;;3.4;6.9;;;;;;;8.4;41.5;98350;;;;
2022/02/19 15:24:41;;;;;;;3.2;6.1;;;;;;;8.4;41;98360;;;;
2022/02/19 15:34:40;;;;;;;3.2;6.1;;;;;;;7.9;43.6;98370;;;;
2022/02/19 15:44:40;;;;;;;4.2;8.4;;;;;;;7.7;42.5;98380;;;;
2022/02/19 15:54:40;;;;;;;4.2;8.4;;;;;;;7.6;43.1;98410;;;;
2022/02/19 16:05:40;;;;;;;4.2;8.4;;;;;;;7.3;42.6;98420;;;;
2022/02/19 16:16:40;;;;;;;4.9;7.9;;;;;;;7;39.8;98430;;;;
2022/02/19 16:26:41;;;;;;;4.9;7.9;;;;;;;6.7;40.6;98450;;;;
2022/02/19 16:36:41;;;;;;;4.9;7.9;;;;;;;6.4;41.6;98470;;;;
2022/02/19 16:47:41;;;;;;;4.2;8;;;;;;;6.2;43.1;98500;;;;
2022/02/19 16:57:40;;;;;;;4.2;8;;;;;;;5.8;44.3;98520;;;;
2022/02/19 17:08:40;;;;;;;4.2;8;;;;;;;5.7;45.1;98550;;;;
2022/02/19 17:18:43;;;;;;;7;14;;;;;;;5.6;45.8;98560;;;;
2022/02/19 17:29:40;;;;;;;7;14;;;;;;;5.5;45.6;98560;;;;
2022/02/19 17:39:40;;;;;;;7;14;;;;;;;5.3;46;98580;;;;
2022/02/19 17:50:40;;;;;;;7.7;12.5;;;;;;;5.2;46.5;98600;;;;
2022/02/19 18:01:40;;;;;;;7.7;12.5;;;;;;;5;46.8;98610;;;;
2022/02/19 18:11:40;;;;;;;7.7;12.5;;;;;;;4.7;47.1;98610;;;;
2022/02/19 18:22:41;;;;;;;6;9.8;;;;;;;4.4;48.2;98620;;;;
2022/02/19 18:32:40;;;;;;;6;9.8;;;;;;;4.5;49.1;98630;;;;
2022/02/19 18:42:40;;;;;;;6;9.8;;;;;;;4.4;49.8;98640;;;;
2022/02/19 18:53:40;;;;;;;10.6;17.7;;;;;;;4.5;49.8;98640;;;;
2022/02/19 19:03:40;;;;;;;10.6;17.7;;;;;;;4.4;50.1;98640;;;;
2022/02/19 19:14:40;;;;;;;11;16.8;;;;;;;4.1;51.1;98650;;;;
2022/02/19 19:25:40;;;;;;;11;16.8;;;;;;;3.8;52.1;98660;;;;
2022/02/19 19:36:40;;;;;;;11;16.8;;;;;;;3.8;52.6;98670;;;;
2022/02/19 19:46:40;;;;;;;11.4;17.4;;;;;;;3.6;53.2;98690;;;;
2022/02/19 19:56:45;;;;;;;11.4;17.4;;;;;;;3.6;53.6;98700;;;;
2022/02/19 20:07:41;;;;;;;11.4;17.4;;;;;;;3.4;53.4;98710;;;;
2022/02/19 20:17:43;;;;;;;12.1;18.1;;;;;;;3.2;53.8;98720;;;;
2022/02/19 20:28:40;;;;;;;12.1;18.1;;;;;;;3;54.1;98710;;;;
2022/02/19 20:38:40;;;;;;;12.1;18.1;;;;;;;2.6;55.4;98710;;;;
2022/02/19 20:48:40;;;;;;;14.2;19;;;;;;;2.3;56.5;98720;;;;
2022/02/19 20:59:41;;;;;;;14.2;19;;;;;;;1.9;56.8;98720;;;;
2022/02/19 21:10:40;;;;;;;14.2;19;;;;;;;1.3;57.8;98720;;;;
2022/02/19 21:20:40;;;;;;;20.1;27.5;;;;;;;1.1;59.7;98730;;;;
2022/02/19 21:31:40;;;;;;;20.1;27.5;;;;;;;0.8;60.4;98730;;;;
2022/02/19 21:42:40;;;;;;;24;38.6;;;;;;;0.5;61.1;98750;;;;
2022/02/19 21:53:40;;;;;;;24;38.6;;;;;;;0;63;98740;;;;
2022/02/19 22:03:40;;;;;;;24;38.6;;;;;;;-0.3;63.3;98740;;;;
2022/02/19 22:14:40;;;;;;;29.1;39.9;;;;;;;-0.4;63.7;98740;;;;
2022/02/19 22:24:40;;;;;;;29.1;39.9;;;;;;;-0.6;64.2;98750;;;;
2022/02/19 22:34:40;;;;;;;29.1;39.9;;;;;;;-0.7;64.5;98740;;;;
2022/02/19 22:45:40;;;;;;;17.9;25.3;;;;;;;-0.6;64.8;98740;;;;
2022/02/19 22:55:40;;;;;;;17.9;25.3;;;;;;;-0.1;64.9;98730;;;;
2022/02/19 23:05:40;;;;;;;17.9;25.3;;;;;;;0.7;60.6;98710;;;;
2022/02/19 23:16:40;;;;;;;12;19.9;;;;;;;1.3;58;98710;;;;
2022/02/19 23:27:40;;;;;;;12;19.9;;;;;;;1;59.1;98700;;;;
2022/02/19 23:38:40;;;;;;;12;19.9;;;;;;;1.2;57.8;98700;;;;
2022/02/19 23:49:40;;;;;;;8;15.7;;;;;;;1.3;57.6;98690;;;;
